sensor_id;sensor_type;location;lat;lon;timestamp;temperature;humidity
17489;DHT22;8861;52.644;4.734;2023-06-22T00:00:02;17.20;99.90
17489;DHT22;8861;52.644;4.734;2023-06-22T00:02:33;17.20;99.90
17489;DHT22;8861;52.644;4.734;2023-06-22T00:05:00;17.20;99.90
17489;DHT22;8861;52.644;4.734;2023-06-22T00:07:27;17.20;99.90
17489;DHT22;8861;52.644;4.734;2023-06-22T00:09:54;17.20;99.90
17489;DHT22;8861;52.644;4.734;2023-06-22T00:12:22;17.20;99.90
17489;DHT22;8861;52.644;4.734;2023-06-22T00:14:49;17.20;99.90
17489;DHT22;8861;52.644;4.734;2023-06-22T00:17:16;17.20;99.90
17489;DHT22;8861;52.644;4.734;2023-06-22T00:19:43;17.20;99.90
17489;DHT22;8861;52.644;4.734;2023-06-22T00:22:10;17.20;99.90
17489;DHT22;8861;52.644;4.734;2023-06-22T00:24:37;17.10;99.90
17489;DHT22;8861;52.644;4.734;2023-06-22T00:27:04;17.10;99.90
17489;DHT22;8861;52.644;4.734;2023-06-22T00:29:32;17.10;99.90
17489;DHT22;8861;52.644;4.734;2023-06-22T00:31:59;17.10;99.90
17489;DHT22;8861;52.644;4.734;2023-06-22T00:34:26;17.10;99.90
17489;DHT22;8861;52.644;4.734;2023-06-22T00:36:53;17.10;99.90
17489;DHT22;8861;52.644;4.734;2023-06-22T00:39:20;17.10;99.90
17489;DHT22;8861;52.644;4.734;2023-06-22T00:41:47;17.10;99.90
17489;DHT22;8861;52.644;4.734;2023-06-22T00:44:14;17.10;99.90
17489;DHT22;8861;52.644;4.734;2023-06-22T00:46:42;17.10;99.90
17489;DHT22;8861;52.644;4.734;2023-06-22T00:49:09;17.10;99.90
17489;DHT22;8861;52.644;4.734;2023-06-22T00:51:38;17.00;99.90
17489;DHT22;8861;52.644;4.734;2023-06-22T00:54:13;17.00;99.90
17489;DHT22;8861;52.644;4.734;2023-06-22T00:56:40;17.00;99.90
17489;DHT22;8861;52.644;4.734;2023-06-22T00:59:08;17.00;99.90
17489;DHT22;8861;52.644;4.734;2023-06-22T01:01:38;17.00;99.90
17489;DHT22;8861;52.644;4.734;2023-06-22T01:04:08;17.00;99.90
17489;DHT22;8861;52.644;4.734;2023-06-22T01:06:41;16.90;99.90
17489;DHT22;8861;52.644;4.734;2023-06-22T01:09:14;16.90;99.90
17489;DHT22;8861;52.644;4.734;2023-06-22T01:11:44;16.80;99.90
17489;DHT22;8861;52.644;4.734;2023-06-22T01:14:15;16.80;99.90
17489;DHT22;8861;52.644;4.734;2023-06-22T01:16:46;16.80;99.90
17489;DHT22;8861;52.644;4.734;2023-06-22T01:19:29;16.80;99.90
17489;DHT22;8861;52.644;4.734;2023-06-22T01:22:01;16.80;99.90
17489;DHT22;8861;52.644;4.734;2023-06-22T01:24:33;16.80;99.90
17489;DHT22;8861;52.644;4.734;2023-06-22T01:27:12;16.70;99.90
17489;DHT22;8861;52.644;4.734;2023-06-22T01:29:43;16.80;99.90
17489;DHT22;8861;52.644;4.734;2023-06-22T01:32:11;16.80;99.90
17489;DHT22;8861;52.644;4.734;2023-06-22T01:34:39;16.70;99.90
17489;DHT22;8861;52.644;4.734;2023-06-22T01:37:07;16.70;99.90
17489;DHT22;8861;52.644;4.734;2023-06-22T01:39:35;16.70;99.90
17489;DHT22;8861;52.644;4.734;2023-06-22T01:42:02;16.70;99.90
17489;DHT22;8861;52.644;4.734;2023-06-22T01:44:31;16.70;99.90
17489;DHT22;8861;52.644;4.734;2023-06-22T01:47:00;16.70;99.90
17489;DHT22;8861;52.644;4.734;2023-06-22T01:49:27;16.60;99.90
17489;DHT22;8861;52.644;4.734;2023-06-22T01:51:55;16.50;99.90
17489;DHT22;8861;52.644;4.734;2023-06-22T01:54:22;16.50;99.90
17489;DHT22;8861;52.644;4.734;2023-06-22T01:56:49;16.40;99.90
17489;DHT22;8861;52.644;4.734;2023-06-22T01:59:20;16.30;99.90
17489;DHT22;8861;52.644;4.734;2023-06-22T02:01:54;16.20;99.90
17489;DHT22;8861;52.644;4.734;2023-06-22T02:04:27;16.10;99.90
17489;DHT22;8861;52.644;4.734;2023-06-22T02:06:58;16.10;99.90
17489;DHT22;8861;52.644;4.734;2023-06-22T02:09:29;16.10;99.90
17489;DHT22;8861;52.644;4.734;2023-06-22T02:11:57;16.00;99.90
17489;DHT22;8861;52.644;4.734;2023-06-22T02:14:25;16.00;99.90
17489;DHT22;8861;52.644;4.734;2023-06-22T02:16:53;16.00;99.90
17489;DHT22;8861;52.644;4.734;2023-06-22T02:19:24;16.00;99.90
17489;DHT22;8861;52.644;4.734;2023-06-22T02:21:51;16.00;99.90
17489;DHT22;8861;52.644;4.734;2023-06-22T02:24:18;16.00;99.90
17489;DHT22;8861;52.644;4.734;2023-06-22T02:26:49;16.00;99.90
17489;DHT22;8861;52.644;4.734;2023-06-22T02:29:16;16.00;99.90
17489;DHT22;8861;52.644;4.734;2023-06-22T02:31:43;16.00;99.90
17489;DHT22;8861;52.644;4.734;2023-06-22T02:34:10;16.00;99.90
17489;DHT22;8861;52.644;4.734;2023-06-22T02:36:45;16.00;99.90
17489;DHT22;8861;52.644;4.734;2023-06-22T02:39:18;15.90;99.90
17489;DHT22;8861;52.644;4.734;2023-06-22T02:41:45;15.90;99.90
17489;DHT22;8861;52.644;4.734;2023-06-22T02:44:12;15.90;99.90
17489;DHT22;8861;52.644;4.734;2023-06-22T02:46:39;15.90;99.90
17489;DHT22;8861;52.644;4.734;2023-06-22T02:49:06;15.90;99.90
17489;DHT22;8861;52.644;4.734;2023-06-22T02:51:33;15.90;99.90
17489;DHT22;8861;52.644;4.734;2023-06-22T02:54:02;15.90;99.90
17489;DHT22;8861;52.644;4.734;2023-06-22T02:56:29;15.90;99.90
17489;DHT22;8861;52.644;4.734;2023-06-22T02:58:57;15.80;99.90
17489;DHT22;8861;52.644;4.734;2023-06-22T03:01:26;15.80;99.90
17489;DHT22;8861;52.644;4.734;2023-06-22T03:03:53;15.80;99.90
17489;DHT22;8861;52.644;4.734;2023-06-22T03:06:21;15.80;99.90
17489;DHT22;8861;52.644;4.734;2023-06-22T03:08:49;15.80;99.90
17489;DHT22;8861;52.644;4.734;2023-06-22T03:11:17;15.80;99.90
17489;DHT22;8861;52.644;4.734;2023-06-22T03:13:44;15.80;99.90
17489;DHT22;8861;52.644;4.734;2023-06-22T03:16:12;15.80;99.90
17489;DHT22;8861;52.644;4.734;2023-06-22T03:18:39;15.80;99.90
17489;DHT22;8861;52.644;4.734;2023-06-22T03:21:06;15.80;99.90
17489;DHT22;8861;52.644;4.734;2023-06-22T03:23:33;15.80;99.90
17489;DHT22;8861;52.644;4.734;2023-06-22T03:26:00;15.80;99.90
17489;DHT22;8861;52.644;4.734;2023-06-22T03:28:28;15.80;99.90
17489;DHT22;8861;52.644;4.734;2023-06-22T03:30:57;15.70;99.90
17489;DHT22;8861;52.644;4.734;2023-06-22T03:33:24;15.70;99.90
17489;DHT22;8861;52.644;4.734;2023-06-22T03:35:51;15.80;99.90
17489;DHT22;8861;52.644;4.734;2023-06-22T03:38:19;15.80;99.90
17489;DHT22;8861;52.644;4.734;2023-06-22T03:40:46;15.70;99.90
17489;DHT22;8861;52.644;4.734;2023-06-22T03:43:13;15.70;99.90
17489;DHT22;8861;52.644;4.734;2023-06-22T03:45:42;15.80;99.90
17489;DHT22;8861;52.644;4.734;2023-06-22T03:48:10;15.80;99.90
17489;DHT22;8861;52.644;4.734;2023-06-22T03:50:38;15.80;99.90
17489;DHT22;8861;52.644;4.734;2023-06-22T03:53:05;15.80;99.90
17489;DHT22;8861;52.644;4.734;2023-06-22T03:55:33;15.80;99.90
17489;DHT22;8861;52.644;4.734;2023-06-22T03:58:00;15.80;99.90
17489;DHT22;8861;52.644;4.734;2023-06-22T04:00:31;15.80;99.90
17489;DHT22;8861;52.644;4.734;2023-06-22T04:03:00;15.80;99.90
17489;DHT22;8861;52.644;4.734;2023-06-22T04:05:27;15.80;99.90
17489;DHT22;8861;52.644;4.734;2023-06-22T04:07:53;15.80;99.90
17489;DHT22;8861;52.644;4.734;2023-06-22T04:10:21;15.80;99.90
17489;DHT22;8861;52.644;4.734;2023-06-22T04:12:48;15.90;99.90
17489;DHT22;8861;52.644;4.734;2023-06-22T04:15:15;15.90;99.90
17489;DHT22;8861;52.644;4.734;2023-06-22T04:17:42;15.90;99.90
17489;DHT22;8861;52.644;4.734;2023-06-22T04:20:10;16.00;99.90
17489;DHT22;8861;52.644;4.734;2023-06-22T04:22:37;16.00;99.90
17489;DHT22;8861;52.644;4.734;2023-06-22T04:25:06;16.00;99.90
17489;DHT22;8861;52.644;4.734;2023-06-22T04:27:34;16.10;99.90
17489;DHT22;8861;52.644;4.734;2023-06-22T04:30:03;16.10;99.90
17489;DHT22;8861;52.644;4.734;2023-06-22T04:32:32;16.20;99.90
17489;DHT22;8861;52.644;4.734;2023-06-22T04:34:59;16.20;99.90
17489;DHT22;8861;52.644;4.734;2023-06-22T04:37:28;16.20;99.90
17489;DHT22;8861;52.644;4.734;2023-06-22T04:39:55;16.20;99.90
17489;DHT22;8861;52.644;4.734;2023-06-22T04:42:22;16.30;99.90
17489;DHT22;8861;52.644;4.734;2023-06-22T04:44:49;16.30;99.90
17489;DHT22;8861;52.644;4.734;2023-06-22T04:47:16;16.40;99.90
17489;DHT22;8861;52.644;4.734;2023-06-22T04:49:43;16.50;99.90
17489;DHT22;8861;52.644;4.734;2023-06-22T04:52:11;16.60;99.90
17489;DHT22;8861;52.644;4.734;2023-06-22T04:54:40;16.70;99.90
17489;DHT22;8861;52.644;4.734;2023-06-22T04:57:13;16.80;99.90
17489;DHT22;8861;52.644;4.734;2023-06-22T04:59:41;16.90;99.90
17489;DHT22;8861;52.644;4.734;2023-06-22T05:02:09;16.90;99.90
17489;DHT22;8861;52.644;4.734;2023-06-22T05:04:36;17.00;99.90
17489;DHT22;8861;52.644;4.734;2023-06-22T05:07:04;17.10;99.90
17489;DHT22;8861;52.644;4.734;2023-06-22T05:09:31;17.20;99.90
17489;DHT22;8861;52.644;4.734;2023-06-22T05:12:02;17.30;99.90
17489;DHT22;8861;52.644;4.734;2023-06-22T05:14:30;17.30;99.90
17489;DHT22;8861;52.644;4.734;2023-06-22T05:16:57;17.50;99.90
17489;DHT22;8861;52.644;4.734;2023-06-22T05:19:29;17.60;99.90
17489;DHT22;8861;52.644;4.734;2023-06-22T05:21:58;17.70;99.90
17489;DHT22;8861;52.644;4.734;2023-06-22T05:24:25;17.80;99.90
17489;DHT22;8861;52.644;4.734;2023-06-22T05:26:52;17.80;99.90
17489;DHT22;8861;52.644;4.734;2023-06-22T05:29:21;17.90;99.90
17489;DHT22;8861;52.644;4.734;2023-06-22T05:31:48;18.00;99.90
17489;DHT22;8861;52.644;4.734;2023-06-22T05:34:15;18.10;99.90
17489;DHT22;8861;52.644;4.734;2023-06-22T05:36:42;18.10;99.90
17489;DHT22;8861;52.644;4.734;2023-06-22T05:39:13;18.20;99.90
17489;DHT22;8861;52.644;4.734;2023-06-22T05:41:40;18.20;99.90
17489;DHT22;8861;52.644;4.734;2023-06-22T05:44:08;18.30;99.90
17489;DHT22;8861;52.644;4.734;2023-06-22T05:46:39;18.30;99.90
17489;DHT22;8861;52.644;4.734;2023-06-22T05:49:06;18.40;99.90
17489;DHT22;8861;52.644;4.734;2023-06-22T05:51:33;18.50;99.90
17489;DHT22;8861;52.644;4.734;2023-06-22T05:54:00;18.50;99.90
17489;DHT22;8861;52.644;4.734;2023-06-22T05:56:27;18.50;99.90
17489;DHT22;8861;52.644;4.734;2023-06-22T05:58:54;18.60;99.90
17489;DHT22;8861;52.644;4.734;2023-06-22T06:01:21;18.70;99.90
17489;DHT22;8861;52.644;4.734;2023-06-22T06:03:49;18.80;99.90
17489;DHT22;8861;52.644;4.734;2023-06-22T06:06:18;18.90;99.90
17489;DHT22;8861;52.644;4.734;2023-06-22T06:08:46;19.00;99.90
17489;DHT22;8861;52.644;4.734;2023-06-22T06:11:13;19.10;99.90
17489;DHT22;8861;52.644;4.734;2023-06-22T06:13:39;19.20;99.90
17489;DHT22;8861;52.644;4.734;2023-06-22T06:16:06;19.20;99.90
17489;DHT22;8861;52.644;4.734;2023-06-22T06:18:33;19.30;99.90
17489;DHT22;8861;52.644;4.734;2023-06-22T06:21:04;19.20;99.90
17489;DHT22;8861;52.644;4.734;2023-06-22T06:23:31;19.30;99.90
17489;DHT22;8861;52.644;4.734;2023-06-22T06:25:58;19.30;99.90
17489;DHT22;8861;52.644;4.734;2023-06-22T06:28:25;19.30;99.90
17489;DHT22;8861;52.644;4.734;2023-06-22T06:30:52;19.40;99.90
17489;DHT22;8861;52.644;4.734;2023-06-22T06:33:19;19.50;99.90
17489;DHT22;8861;52.644;4.734;2023-06-22T06:35:46;19.50;99.90
17489;DHT22;8861;52.644;4.734;2023-06-22T06:38:15;19.60;99.90
17489;DHT22;8861;52.644;4.734;2023-06-22T06:40:42;19.60;99.90
17489;DHT22;8861;52.644;4.734;2023-06-22T06:43:10;19.70;99.90
17489;DHT22;8861;52.644;4.734;2023-06-22T06:45:37;19.80;99.90
17489;DHT22;8861;52.644;4.734;2023-06-22T06:48:05;19.90;99.90
17489;DHT22;8861;52.644;4.734;2023-06-22T06:50:32;19.90;99.90
17489;DHT22;8861;52.644;4.734;2023-06-22T06:52:59;20.00;99.90
17489;DHT22;8861;52.644;4.734;2023-06-22T06:55:27;20.10;99.90
17489;DHT22;8861;52.644;4.734;2023-06-22T06:57:58;20.20;99.90
17489;DHT22;8861;52.644;4.734;2023-06-22T07:00:25;20.30;99.90
17489;DHT22;8861;52.644;4.734;2023-06-22T07:02:52;20.40;99.90
17489;DHT22;8861;52.644;4.734;2023-06-22T07:05:19;20.60;99.90
17489;DHT22;8861;52.644;4.734;2023-06-22T07:07:47;20.70;99.90
17489;DHT22;8861;52.644;4.734;2023-06-22T07:10:14;20.70;99.90
17489;DHT22;8861;52.644;4.734;2023-06-22T07:12:43;20.70;99.90
17489;DHT22;8861;52.644;4.734;2023-06-22T07:15:10;20.80;99.90
17489;DHT22;8861;52.644;4.734;2023-06-22T07:17:38;20.80;99.90
17489;DHT22;8861;52.644;4.734;2023-06-22T07:20:07;20.80;99.90
17489;DHT22;8861;52.644;4.734;2023-06-22T07:22:37;20.90;99.90
17489;DHT22;8861;52.644;4.734;2023-06-22T07:25:05;20.90;99.90
17489;DHT22;8861;52.644;4.734;2023-06-22T07:27:35;21.00;99.90
17489;DHT22;8861;52.644;4.734;2023-06-22T07:30:08;21.10;99.90
17489;DHT22;8861;52.644;4.734;2023-06-22T07:32:35;21.20;99.90
17489;DHT22;8861;52.644;4.734;2023-06-22T07:35:02;21.20;99.90
17489;DHT22;8861;52.644;4.734;2023-06-22T07:37:30;21.20;99.90
17489;DHT22;8861;52.644;4.734;2023-06-22T07:39:58;21.40;99.90
17489;DHT22;8861;52.644;4.734;2023-06-22T07:42:25;21.40;99.90
17489;DHT22;8861;52.644;4.734;2023-06-22T07:44:53;21.50;99.90
17489;DHT22;8861;52.644;4.734;2023-06-22T07:47:21;21.60;99.90
17489;DHT22;8861;52.644;4.734;2023-06-22T07:49:50;21.60;99.90
17489;DHT22;8861;52.644;4.734;2023-06-22T07:52:20;21.70;99.90
17489;DHT22;8861;52.644;4.734;2023-06-22T07:54:47;21.80;99.90
17489;DHT22;8861;52.644;4.734;2023-06-22T07:57:14;21.80;99.90
17489;DHT22;8861;52.644;4.734;2023-06-22T07:59:41;21.90;99.90
17489;DHT22;8861;52.644;4.734;2023-06-22T08:02:08;21.90;99.90
17489;DHT22;8861;52.644;4.734;2023-06-22T08:04:37;21.90;99.90
17489;DHT22;8861;52.644;4.734;2023-06-22T08:07:04;22.00;99.90
17489;DHT22;8861;52.644;4.734;2023-06-22T08:09:32;22.00;99.90
17489;DHT22;8861;52.644;4.734;2023-06-22T08:11:59;22.10;99.90
17489;DHT22;8861;52.644;4.734;2023-06-22T08:14:27;22.20;99.90
17489;DHT22;8861;52.644;4.734;2023-06-22T08:16:54;22.30;99.90
17489;DHT22;8861;52.644;4.734;2023-06-22T08:19:21;22.40;99.90
17489;DHT22;8861;52.644;4.734;2023-06-22T08:21:50;22.50;99.90
17489;DHT22;8861;52.644;4.734;2023-06-22T08:24:17;22.60;99.90
17489;DHT22;8861;52.644;4.734;2023-06-22T08:26:44;22.70;99.90
17489;DHT22;8861;52.644;4.734;2023-06-22T08:29:11;22.70;99.90
17489;DHT22;8861;52.644;4.734;2023-06-22T08:31:38;22.70;99.90
17489;DHT22;8861;52.644;4.734;2023-06-22T08:34:05;22.70;99.90
17489;DHT22;8861;52.644;4.734;2023-06-22T08:36:32;22.70;99.90
17489;DHT22;8861;52.644;4.734;2023-06-22T08:39:04;22.70;99.90
17489;DHT22;8861;52.644;4.734;2023-06-22T08:41:31;22.70;99.90
17489;DHT22;8861;52.644;4.734;2023-06-22T08:43:58;22.70;99.90
17489;DHT22;8861;52.644;4.734;2023-06-22T08:46:25;22.70;99.90
17489;DHT22;8861;52.644;4.734;2023-06-22T08:48:56;22.70;99.90
17489;DHT22;8861;52.644;4.734;2023-06-22T08:51:24;22.80;99.90
17489;DHT22;8861;52.644;4.734;2023-06-22T08:53:51;22.80;99.90
17489;DHT22;8861;52.644;4.734;2023-06-22T08:56:19;22.90;99.90
17489;DHT22;8861;52.644;4.734;2023-06-22T08:58:46;23.00;99.90
17489;DHT22;8861;52.644;4.734;2023-06-22T09:01:13;23.00;99.90
17489;DHT22;8861;52.644;4.734;2023-06-22T09:03:41;23.10;99.90
17489;DHT22;8861;52.644;4.734;2023-06-22T09:06:08;23.20;99.90
17489;DHT22;8861;52.644;4.734;2023-06-22T09:08:35;23.30;99.90
17489;DHT22;8861;52.644;4.734;2023-06-22T09:11:03;23.40;99.90
17489;DHT22;8861;52.644;4.734;2023-06-22T09:13:32;23.50;99.90
17489;DHT22;8861;52.644;4.734;2023-06-22T09:15:59;23.60;99.90
17489;DHT22;8861;52.644;4.734;2023-06-22T09:18:26;23.70;99.90
17489;DHT22;8861;52.644;4.734;2023-06-22T09:20:53;23.80;99.90
17489;DHT22;8861;52.644;4.734;2023-06-22T09:23:20;24.00;99.90
17489;DHT22;8861;52.644;4.734;2023-06-22T09:25:47;24.10;99.90
17489;DHT22;8861;52.644;4.734;2023-06-22T09:28:14;24.20;99.90
17489;DHT22;8861;52.644;4.734;2023-06-22T09:30:44;24.30;99.90
17489;DHT22;8861;52.644;4.734;2023-06-22T09:33:11;24.30;99.90
17489;DHT22;8861;52.644;4.734;2023-06-22T09:35:38;24.30;99.90
17489;DHT22;8861;52.644;4.734;2023-06-22T09:38:05;24.30;99.90
17489;DHT22;8861;52.644;4.734;2023-06-22T09:40:32;24.40;99.90
17489;DHT22;8861;52.644;4.734;2023-06-22T09:43:01;24.50;99.90
17489;DHT22;8861;52.644;4.734;2023-06-22T09:45:28;24.70;99.90
17489;DHT22;8861;52.644;4.734;2023-06-22T09:47:57;24.90;99.90
17489;DHT22;8861;52.644;4.734;2023-06-22T09:50:24;25.00;99.90
17489;DHT22;8861;52.644;4.734;2023-06-22T09:52:51;25.10;99.90
17489;DHT22;8861;52.644;4.734;2023-06-22T09:55:20;25.10;99.90
17489;DHT22;8861;52.644;4.734;2023-06-22T09:57:47;25.10;99.90
17489;DHT22;8861;52.644;4.734;2023-06-22T10:00:16;25.20;99.90
17489;DHT22;8861;52.644;4.734;2023-06-22T10:02:44;25.20;99.90
17489;DHT22;8861;52.644;4.734;2023-06-22T10:05:13;25.20;99.90
17489;DHT22;8861;52.644;4.734;2023-06-22T10:07:40;25.30;99.90
17489;DHT22;8861;52.644;4.734;2023-06-22T10:10:09;25.40;99.90
17489;DHT22;8861;52.644;4.734;2023-06-22T10:12:36;25.50;99.90
17489;DHT22;8861;52.644;4.734;2023-06-22T10:15:04;25.60;99.90
17489;DHT22;8861;52.644;4.734;2023-06-22T10:17:31;25.60;99.90
17489;DHT22;8861;52.644;4.734;2023-06-22T10:19:58;25.70;99.90
17489;DHT22;8861;52.644;4.734;2023-06-22T10:22:27;25.70;99.90
17489;DHT22;8861;52.644;4.734;2023-06-22T10:24:54;25.80;99.90
17489;DHT22;8861;52.644;4.734;2023-06-22T10:27:21;26.00;99.90
17489;DHT22;8861;52.644;4.734;2023-06-22T10:29:48;26.10;99.90
17489;DHT22;8861;52.644;4.734;2023-06-22T10:32:15;26.30;99.90
17489;DHT22;8861;52.644;4.734;2023-06-22T10:34:42;26.40;99.90
17489;DHT22;8861;52.644;4.734;2023-06-22T10:37:09;26.40;99.90
17489;DHT22;8861;52.644;4.734;2023-06-22T10:39:37;26.50;99.90
17489;DHT22;8861;52.644;4.734;2023-06-22T10:42:05;26.60;99.90
17489;DHT22;8861;52.644;4.734;2023-06-22T10:44:32;26.70;99.90
17489;DHT22;8861;52.644;4.734;2023-06-22T10:46:59;26.80;99.90
17489;DHT22;8861;52.644;4.734;2023-06-22T10:49:26;26.90;99.90
17489;DHT22;8861;52.644;4.734;2023-06-22T10:51:53;26.90;99.90
17489;DHT22;8861;52.644;4.734;2023-06-22T10:54:20;26.90;99.90
17489;DHT22;8861;52.644;4.734;2023-06-22T10:56:48;26.90;99.90
17489;DHT22;8861;52.644;4.734;2023-06-22T10:59:16;26.80;99.90
17489;DHT22;8861;52.644;4.734;2023-06-22T11:01:43;26.80;99.90
17489;DHT22;8861;52.644;4.734;2023-06-22T11:04:10;26.90;99.90
17489;DHT22;8861;52.644;4.734;2023-06-22T11:06:37;26.90;99.90
17489;DHT22;8861;52.644;4.734;2023-06-22T11:09:04;27.00;99.90
17489;DHT22;8861;52.644;4.734;2023-06-22T11:11:31;27.20;99.90
17489;DHT22;8861;52.644;4.734;2023-06-22T11:14:00;27.30;99.90
17489;DHT22;8861;52.644;4.734;2023-06-22T11:16:27;27.40;99.90
17489;DHT22;8861;52.644;4.734;2023-06-22T11:18:54;27.50;99.90
17489;DHT22;8861;52.644;4.734;2023-06-22T11:21:21;27.70;99.90
17489;DHT22;8861;52.644;4.734;2023-06-22T11:23:48;27.80;99.90
17489;DHT22;8861;52.644;4.734;2023-06-22T11:26:16;28.00;99.90
17489;DHT22;8861;52.644;4.734;2023-06-22T11:28:43;28.00;99.90
17489;DHT22;8861;52.644;4.734;2023-06-22T11:31:11;28.00;99.90
17489;DHT22;8861;52.644;4.734;2023-06-22T11:33:38;28.00;99.90
17489;DHT22;8861;52.644;4.734;2023-06-22T11:36:05;28.10;99.90
17489;DHT22;8861;52.644;4.734;2023-06-22T11:38:32;28.10;99.90
17489;DHT22;8861;52.644;4.734;2023-06-22T11:40:59;28.20;99.90
17489;DHT22;8861;52.644;4.734;2023-06-22T11:43:26;28.10;99.90
17489;DHT22;8861;52.644;4.734;2023-06-22T11:45:53;28.20;99.90
17489;DHT22;8861;52.644;4.734;2023-06-22T11:48:24;28.20;99.90
17489;DHT22;8861;52.644;4.734;2023-06-22T11:50:51;28.30;99.90
17489;DHT22;8861;52.644;4.734;2023-06-22T11:53:18;28.20;99.90
17489;DHT22;8861;52.644;4.734;2023-06-22T11:55:45;28.20;99.90
17489;DHT22;8861;52.644;4.734;2023-06-22T11:58:12;28.10;99.90
17489;DHT22;8861;52.644;4.734;2023-06-22T12:00:39;28.10;99.90
17489;DHT22;8861;52.644;4.734;2023-06-22T12:03:07;28.20;99.90
17489;DHT22;8861;52.644;4.734;2023-06-22T12:05:36;28.30;99.90
17489;DHT22;8861;52.644;4.734;2023-06-22T12:08:03;28.40;99.90
17489;DHT22;8861;52.644;4.734;2023-06-22T12:10:30;28.50;99.90
17489;DHT22;8861;52.644;4.734;2023-06-22T12:12:58;28.50;99.90
17489;DHT22;8861;52.644;4.734;2023-06-22T12:15:25;28.60;99.90
17489;DHT22;8861;52.644;4.734;2023-06-22T12:17:53;28.60;99.90
17489;DHT22;8861;52.644;4.734;2023-06-22T12:20:20;28.70;99.90
17489;DHT22;8861;52.644;4.734;2023-06-22T12:22:48;28.70;99.90
17489;DHT22;8861;52.644;4.734;2023-06-22T12:25:17;28.60;99.90
17489;DHT22;8861;52.644;4.734;2023-06-22T12:27:44;28.50;99.90
17489;DHT22;8861;52.644;4.734;2023-06-22T12:30:11;28.30;99.90
17489;DHT22;8861;52.644;4.734;2023-06-22T12:32:38;28.20;99.90
17489;DHT22;8861;52.644;4.734;2023-06-22T12:35:06;28.00;99.90
17489;DHT22;8861;52.644;4.734;2023-06-22T12:37:37;27.90;99.90
17489;DHT22;8861;52.644;4.734;2023-06-22T12:40:07;27.80;99.90
17489;DHT22;8861;52.644;4.734;2023-06-22T12:42:34;27.70;99.90
17489;DHT22;8861;52.644;4.734;2023-06-22T12:45:01;27.60;99.90
17489;DHT22;8861;52.644;4.734;2023-06-22T12:47:28;27.30;99.90
17489;DHT22;8861;52.644;4.734;2023-06-22T12:49:55;27.10;99.90
17489;DHT22;8861;52.644;4.734;2023-06-22T12:52:22;27.00;99.90
17489;DHT22;8861;52.644;4.734;2023-06-22T12:54:49;26.90;99.90
17489;DHT22;8861;52.644;4.734;2023-06-22T12:57:19;26.80;99.90
17489;DHT22;8861;52.644;4.734;2023-06-22T12:59:46;26.70;99.90
17489;DHT22;8861;52.644;4.734;2023-06-22T13:02:13;26.60;99.90
17489;DHT22;8861;52.644;4.734;2023-06-22T13:04:40;26.40;99.90
17489;DHT22;8861;52.644;4.734;2023-06-22T13:07:08;26.40;99.90
17489;DHT22;8861;52.644;4.734;2023-06-22T13:09:36;26.30;99.90
17489;DHT22;8861;52.644;4.734;2023-06-22T13:12:04;26.20;99.90
17489;DHT22;8861;52.644;4.734;2023-06-22T13:14:32;26.20;99.90
17489;DHT22;8861;52.644;4.734;2023-06-22T13:16:59;26.10;99.90
17489;DHT22;8861;52.644;4.734;2023-06-22T13:19:26;26.10;99.90
17489;DHT22;8861;52.644;4.734;2023-06-22T13:21:58;26.00;99.90
17489;DHT22;8861;52.644;4.734;2023-06-22T13:24:25;25.90;99.90
17489;DHT22;8861;52.644;4.734;2023-06-22T13:26:52;25.70;99.90
17489;DHT22;8861;52.644;4.734;2023-06-22T13:29:19;25.50;99.90
17489;DHT22;8861;52.644;4.734;2023-06-22T13:31:47;25.40;99.90
17489;DHT22;8861;52.644;4.734;2023-06-22T13:34:14;25.20;99.90
17489;DHT22;8861;52.644;4.734;2023-06-22T13:36:41;25.10;99.90
17489;DHT22;8861;52.644;4.734;2023-06-22T13:39:08;25.00;99.90
17489;DHT22;8861;52.644;4.734;2023-06-22T13:41:35;24.90;99.90
17489;DHT22;8861;52.644;4.734;2023-06-22T13:44:02;24.80;99.90
17489;DHT22;8861;52.644;4.734;2023-06-22T13:46:29;24.80;99.90
17489;DHT22;8861;52.644;4.734;2023-06-22T13:48:58;24.70;99.90
17489;DHT22;8861;52.644;4.734;2023-06-22T13:51:25;24.60;99.90
17489;DHT22;8861;52.644;4.734;2023-06-22T13:53:52;24.60;99.90
17489;DHT22;8861;52.644;4.734;2023-06-22T13:56:19;24.60;99.90
17489;DHT22;8861;52.644;4.734;2023-06-22T13:58:47;24.50;99.90
17489;DHT22;8861;52.644;4.734;2023-06-22T14:01:14;24.50;99.90
17489;DHT22;8861;52.644;4.734;2023-06-22T14:03:41;24.50;99.90
17489;DHT22;8861;52.644;4.734;2023-06-22T14:06:11;24.40;99.90
17489;DHT22;8861;52.644;4.734;2023-06-22T14:08:38;24.40;99.90
17489;DHT22;8861;52.644;4.734;2023-06-22T14:11:05;24.30;99.90
17489;DHT22;8861;52.644;4.734;2023-06-22T14:13:32;24.30;99.90
17489;DHT22;8861;52.644;4.734;2023-06-22T14:16:01;24.10;99.90
17489;DHT22;8861;52.644;4.734;2023-06-22T14:18:29;24.00;99.90
17489;DHT22;8861;52.644;4.734;2023-06-22T14:20:56;24.00;99.90
17489;DHT22;8861;52.644;4.734;2023-06-22T14:23:25;24.00;99.90
17489;DHT22;8861;52.644;4.734;2023-06-22T14:25:52;23.90;99.90
17489;DHT22;8861;52.644;4.734;2023-06-22T14:28:19;23.90;99.90
17489;DHT22;8861;52.644;4.734;2023-06-22T14:30:46;23.90;99.90
17489;DHT22;8861;52.644;4.734;2023-06-22T14:33:13;24.00;99.90
17489;DHT22;8861;52.644;4.734;2023-06-22T14:35:40;24.00;99.90
17489;DHT22;8861;52.644;4.734;2023-06-22T14:38:07;24.00;99.90
17489;DHT22;8861;52.644;4.734;2023-06-22T14:40:35;24.00;99.90
17489;DHT22;8861;52.644;4.734;2023-06-22T14:43:02;23.90;99.90
17489;DHT22;8861;52.644;4.734;2023-06-22T14:45:29;24.00;99.90
17489;DHT22;8861;52.644;4.734;2023-06-22T14:47:56;24.00;99.90
17489;DHT22;8861;52.644;4.734;2023-06-22T14:50:23;24.00;99.90
17489;DHT22;8861;52.644;4.734;2023-06-22T14:52:50;24.00;99.90
17489;DHT22;8861;52.644;4.734;2023-06-22T14:55:18;23.90;99.90
17489;DHT22;8861;52.644;4.734;2023-06-22T14:57:46;23.90;99.90
17489;DHT22;8861;52.644;4.734;2023-06-22T15:00:13;23.80;99.90
17489;DHT22;8861;52.644;4.734;2023-06-22T15:02:41;23.80;99.90
17489;DHT22;8861;52.644;4.734;2023-06-22T15:05:08;23.70;99.90
17489;DHT22;8861;52.644;4.734;2023-06-22T15:07:35;23.70;99.90
17489;DHT22;8861;52.644;4.734;2023-06-22T15:10:02;23.60;99.90
17489;DHT22;8861;52.644;4.734;2023-06-22T15:12:29;23.50;99.90
17489;DHT22;8861;52.644;4.734;2023-06-22T15:14:58;23.50;99.90
17489;DHT22;8861;52.644;4.734;2023-06-22T15:17:25;23.60;99.90
17489;DHT22;8861;52.644;4.734;2023-06-22T15:19:54;23.50;99.90
17489;DHT22;8861;52.644;4.734;2023-06-22T15:22:21;23.50;99.90
17489;DHT22;8861;52.644;4.734;2023-06-22T15:24:48;23.50;99.90
17489;DHT22;8861;52.644;4.734;2023-06-22T15:27:18;23.50;99.90
17489;DHT22;8861;52.644;4.734;2023-06-22T15:29:46;23.50;99.90
17489;DHT22;8861;52.644;4.734;2023-06-22T15:32:14;23.40;99.90
17489;DHT22;8861;52.644;4.734;2023-06-22T15:34:41;23.40;99.90
17489;DHT22;8861;52.644;4.734;2023-06-22T15:37:08;23.30;99.90
17489;DHT22;8861;52.644;4.734;2023-06-22T15:39:35;23.30;99.90
17489;DHT22;8861;52.644;4.734;2023-06-22T15:42:02;23.30;99.90
17489;DHT22;8861;52.644;4.734;2023-06-22T15:44:29;23.20;99.90
17489;DHT22;8861;52.644;4.734;2023-06-22T15:46:56;23.20;99.90